createdAt,value
2022-08-03T00:00:04.384Z,1
2022-08-03T00:02:04.819Z,1
2022-08-03T00:04:14.482Z,1
2022-08-03T00:06:05.084Z,1
2022-08-03T00:08:08.196Z,1
2022-08-03T00:10:03.930Z,1
2022-08-03T00:12:04.277Z,1
2022-08-03T00:14:04.195Z,1
2022-08-03T00:16:04.266Z,1
2022-08-03T00:18:05.069Z,1
2022-08-03T00:20:08.556Z,1
2022-08-03T00:22:04.072Z,1
2022-08-03T00:24:04.085Z,1
2022-08-03T00:28:03.938Z,1
2022-08-03T00:30:04.911Z,1
2022-08-03T00:32:07.536Z,1
2022-08-03T00:34:07.534Z,1
2022-08-03T00:36:03.949Z,1
2022-08-03T00:38:03.985Z,1
2022-08-03T00:40:04.368Z,1
2022-08-03T00:42:04.104Z,1
2022-08-03T00:44:03.962Z,1
2022-08-03T00:46:05.005Z,1
2022-08-03T00:50:03.944Z,1
2022-08-03T00:52:07.701Z,1
2022-08-03T00:54:04.896Z,1
2022-08-03T00:56:04.212Z,1
2022-08-03T00:58:08.704Z,1
2022-08-03T01:00:04.994Z,1
2022-08-03T01:02:04.182Z,1
2022-08-03T01:04:04.012Z,1
2022-08-03T01:06:07.326Z,1
2022-08-03T01:08:04.002Z,1
2022-08-03T01:10:05.103Z,1
2022-08-03T01:12:07.478Z,1
2022-08-03T01:14:19.115Z,1
2022-08-03T01:16:08.670Z,1
2022-08-03T01:18:04.220Z,1
2022-08-03T01:20:05.277Z,1
2022-08-03T01:22:05.113Z,1
2022-08-03T01:24:07.280Z,1
2022-08-03T01:26:08.379Z,1
2022-08-03T01:28:05.060Z,1
2022-08-03T01:30:11.726Z,1
2022-08-03T01:32:51.920Z,1
2022-08-03T01:34:04.244Z,1
2022-08-03T01:36:10.682Z,1
2022-08-03T01:38:04.003Z,1
2022-08-03T01:40:05.013Z,1
2022-08-03T01:42:04.296Z,1
2022-08-03T01:44:28.880Z,1
2022-08-03T01:46:05.110Z,1
2022-08-03T01:48:04.137Z,1
2022-08-03T01:50:04.109Z,1
2022-08-03T01:52:05.346Z,1
2022-08-03T01:54:07.120Z,1
2022-08-03T01:56:03.982Z,1
2022-08-03T01:58:07.242Z,1
2022-08-03T02:00:07.571Z,1
2022-08-03T02:02:25.220Z,1
2022-08-03T02:04:05.401Z,1
2022-08-03T02:06:55.659Z,1
2022-08-03T02:08:04.060Z,1
2022-08-03T02:10:10.755Z,1
2022-08-03T02:12:04.898Z,1
2022-08-03T02:14:07.156Z,1
2022-08-03T02:16:05.306Z,1
2022-08-03T02:18:04.398Z,1
2022-08-03T02:20:07.467Z,1
2022-08-03T02:22:03.992Z,1
2022-08-03T02:24:04.009Z,1
2022-08-03T02:26:03.993Z,1
2022-08-03T02:28:03.993Z,1
2022-08-03T02:30:07.361Z,1
2022-08-03T02:32:07.169Z,1
2022-08-03T02:34:03.999Z,1
2022-08-03T02:36:05.420Z,1
2022-08-03T02:38:04.158Z,1
2022-08-03T02:40:04.029Z,1
2022-08-03T02:42:07.512Z,1
2022-08-03T02:44:08.569Z,1
2022-08-03T02:46:03.887Z,1
2022-08-03T02:48:03.981Z,1
2022-08-03T02:50:07.501Z,1
2022-08-03T02:52:04.327Z,0
2022-08-03T02:54:03.973Z,0
2022-08-03T02:58:07.229Z,0
2022-08-03T03:00:04.194Z,0
2022-08-03T03:02:04.191Z,0
2022-08-03T03:04:05.014Z,0.1
2022-08-03T03:06:05.663Z,0.1
2022-08-03T03:08:04.030Z,0.2
2022-08-03T03:10:03.969Z,0.2
2022-08-03T03:12:07.160Z,0.3
2022-08-03T03:14:11.801Z,0.4
2022-08-03T03:16:07.273Z,0.5
2022-08-03T03:20:05.042Z,1.1
2022-08-03T03:22:04.238Z,1.4
2022-08-03T03:24:04.000Z,2
2022-08-03T03:26:07.725Z,2.9
2022-08-03T03:28:04.175Z,4.1
2022-08-03T03:30:04.199Z,5
2022-08-03T03:32:08.283Z,7.8
2022-08-03T03:34:07.461Z,11
2022-08-03T03:36:04.278Z,15.6
2022-08-03T03:38:03.980Z,21.1
2022-08-03T03:40:03.986Z,30
2022-08-03T03:42:04.060Z,40.4
2022-08-03T03:44:03.985Z,51.9
2022-08-03T03:46:11.836Z,70.1
2022-08-03T03:48:14.829Z,90
2022-08-03T03:50:04.117Z,109.9
2022-08-03T03:52:07.287Z,134.3
2022-08-03T03:54:03.935Z,164
2022-08-03T03:56:05.083Z,190.6
2022-08-03T03:58:04.113Z,221.4
2022-08-03T04:00:05.163Z,257.2
2022-08-03T04:02:03.999Z,284.3
2022-08-03T04:04:04.006Z,314.2
2022-08-03T04:06:04.038Z,365
2022-08-03T04:08:05.128Z,383.8
2022-08-03T04:10:08.880Z,424.1
2022-08-03T04:12:11.374Z,468.7
2022-08-03T04:14:06.145Z,518
2022-08-03T04:16:04.930Z,544.6
2022-08-03T04:18:04.774Z,572.5
2022-08-03T04:20:04.724Z,601.8
2022-08-03T04:24:04.795Z,665.1
2022-08-03T04:26:04.672Z,699.2
2022-08-03T04:28:30.270Z,735.1
2022-08-03T04:30:08.107Z,772.8
2022-08-03T04:32:05.891Z,812.4
2022-08-03T04:34:04.687Z,812.4
2022-08-03T04:36:05.061Z,854.1
2022-08-03T04:38:04.817Z,897.8
2022-08-03T04:40:09.587Z,943.9
2022-08-03T04:42:17.105Z,943.9
2022-08-03T04:44:08.117Z,992.3
2022-08-03T04:46:04.812Z,1043.1
2022-08-03T04:48:04.672Z,1096.6
2022-08-03T04:50:11.999Z,1096.6
2022-08-03T04:52:04.902Z,1152.9
2022-08-03T04:54:04.675Z,1152.9
2022-08-03T04:56:04.848Z,1152.9
2022-08-03T04:58:12.475Z,1212
2022-08-03T05:00:04.681Z,1212
2022-08-03T05:02:05.004Z,1274.1
2022-08-03T05:04:07.803Z,1274.1
2022-08-03T05:06:10.155Z,1339.4
2022-08-03T05:08:04.765Z,1339.4
2022-08-03T05:10:04.856Z,1339.4
2022-08-03T05:12:04.791Z,1408.1
2022-08-03T05:14:04.794Z,1408.1
2022-08-03T05:16:04.657Z,1480.3
2022-08-03T05:18:12.022Z,1480.3
2022-08-03T05:20:11.539Z,1480.3
2022-08-03T05:22:04.698Z,1556.2
2022-08-03T05:24:09.106Z,1556.2
2022-08-03T05:26:05.037Z,1556.2
2022-08-03T05:28:04.799Z,1636
2022-08-03T05:30:26.735Z,1636
2022-08-03T05:32:08.132Z,1636
2022-08-03T05:34:04.701Z,1636
2022-08-03T05:36:04.799Z,1719.9
2022-08-03T05:38:04.795Z,1719.9
2022-08-03T05:40:04.980Z,1719.9
2022-08-03T05:42:11.390Z,1719.9
2022-08-03T05:44:04.678Z,1808
2022-08-03T05:46:11.862Z,1808
2022-08-03T05:48:09.762Z,1808
2022-08-03T05:50:08.266Z,1900.7
2022-08-03T05:52:10.646Z,1900.7
2022-08-03T05:54:04.684Z,1900.7
2022-08-03T05:56:13.519Z,1900.7
2022-08-03T05:58:04.913Z,1998.2
2022-08-03T06:00:05.378Z,1998.2
2022-08-03T06:02:04.855Z,1998.2
2022-08-03T06:04:04.940Z,1998.2
2022-08-03T06:06:04.943Z,2100.6
2022-08-03T06:08:05.905Z,2100.6
2022-08-03T06:10:34.783Z,2100.6
2022-08-03T06:12:11.161Z,2100.6
2022-08-03T06:14:04.666Z,2208.3
2022-08-03T06:16:06.191Z,2208.3
2022-08-03T06:18:05.018Z,2208.3
2022-08-03T06:20:05.030Z,2208.3
2022-08-03T06:22:04.899Z,2208.3
2022-08-03T06:24:06.182Z,2208.3
2022-08-03T06:26:08.281Z,2321.6
2022-08-03T06:28:04.903Z,2440.6
2022-08-03T06:30:04.768Z,2835.6
2022-08-03T06:32:06.201Z,3827.6
2022-08-03T06:36:05.969Z,3294.5
2022-08-03T06:38:04.929Z,2565.7
2022-08-03T06:40:14.903Z,2565.7
2022-08-03T06:42:04.663Z,2565.7
2022-08-03T06:44:10.384Z,2565.7
2022-08-03T06:46:06.628Z,2565.7
2022-08-03T06:48:09.596Z,2697.3
2022-08-03T06:50:13.207Z,2697.3
2022-08-03T06:52:06.669Z,2697.3
2022-08-03T06:54:12.858Z,2697.3
2022-08-03T06:56:06.084Z,2835.6
2022-08-03T06:58:04.969Z,2835.6
2022-08-03T07:00:11.765Z,2835.6
2022-08-03T07:02:12.625Z,2835.6
2022-08-03T07:04:06.732Z,2835.6
2022-08-03T07:06:11.487Z,2981
2022-08-03T07:08:06.235Z,2981
2022-08-03T07:10:09.608Z,2981
2022-08-03T07:12:09.730Z,2981
2022-08-03T07:14:08.241Z,3133.8
2022-08-03T07:16:07.830Z,3133.8
2022-08-03T07:18:06.231Z,3133.8
2022-08-03T07:20:04.946Z,3133.8
2022-08-03T07:22:13.037Z,3294.5
2022-08-03T07:24:08.101Z,3294.5
2022-08-03T07:26:04.692Z,3294.5
2022-08-03T07:28:04.888Z,3294.5
2022-08-03T07:30:04.867Z,3294.5
2022-08-03T07:32:04.755Z,3463.4
2022-08-03T07:34:04.964Z,3463.4
2022-08-03T07:36:04.943Z,3463.4
2022-08-03T07:38:09.659Z,3463.4
2022-08-03T07:40:04.780Z,3641
2022-08-03T07:42:04.639Z,3641
2022-08-03T07:44:04.874Z,3641
2022-08-03T07:46:08.012Z,3641
2022-08-03T07:48:07.576Z,3827.6
2022-08-03T07:50:04.661Z,3827.6
2022-08-03T07:52:06.417Z,3827.6
2022-08-03T07:54:08.267Z,3827.6
2022-08-03T07:56:04.657Z,4023.9
2022-08-03T07:58:06.113Z,4023.9
2022-08-03T08:00:04.873Z,4023.9
2022-08-03T08:02:13.035Z,4023.9
2022-08-03T08:04:04.895Z,4023.9
2022-08-03T08:06:04.737Z,4230.2
2022-08-03T08:08:09.620Z,4230.2
2022-08-03T08:10:04.959Z,4230.2
2022-08-03T08:12:04.645Z,4230.2
2022-08-03T08:14:08.137Z,4230.2
2022-08-03T08:16:04.945Z,4230.2
2022-08-03T08:18:04.789Z,4447.1
2022-08-03T08:20:05.010Z,4447.1
2022-08-03T08:22:08.154Z,4447.1
2022-08-03T08:24:07.251Z,4447.1
2022-08-03T08:26:09.228Z,4447.1
2022-08-03T08:28:21.696Z,4675.1
2022-08-03T08:30:11.591Z,4675.1
2022-08-03T08:32:06.120Z,4675.1
2022-08-03T08:34:05.031Z,4675.1
2022-08-03T08:36:06.657Z,4675.1
2022-08-03T08:38:12.579Z,4675.1
2022-08-03T08:40:08.247Z,4914.8
2022-08-03T08:42:12.985Z,4914.8
2022-08-03T08:44:04.693Z,4914.8
2022-08-03T08:46:06.726Z,4914.8
2022-08-03T08:48:08.172Z,4914.8
2022-08-03T08:50:09.998Z,4914.8
2022-08-03T08:52:04.783Z,4914.8
2022-08-03T08:54:11.099Z,5166.8
2022-08-03T08:56:04.692Z,5166.8
2022-08-03T08:58:09.875Z,5166.8
2022-08-03T09:00:04.708Z,5166.8
2022-08-03T09:02:06.097Z,5166.8
2022-08-03T09:04:06.109Z,5166.8
2022-08-03T09:06:06.568Z,5166.8
2022-08-03T09:08:04.784Z,5431.7
2022-08-03T09:10:10.688Z,5431.7
2022-08-03T09:12:21.064Z,5431.7
2022-08-03T09:14:06.372Z,5431.7
2022-08-03T09:16:04.703Z,5431.7
2022-08-03T09:18:04.732Z,5431.7
2022-08-03T09:20:07.896Z,5431.7
2022-08-03T09:24:13.262Z,5710.1
2022-08-03T09:26:09.093Z,5710.1
2022-08-03T09:28:04.676Z,5710.1
2022-08-03T09:30:04.703Z,5710.1
2022-08-03T09:32:07.871Z,5710.1
2022-08-03T09:34:09.747Z,5710.1
2022-08-03T09:36:08.284Z,5710.1
2022-08-03T09:38:11.157Z,5710.1
2022-08-03T09:40:06.177Z,5710.1
2022-08-03T09:42:06.120Z,6002.9
2022-08-03T09:44:05.032Z,6002.9
2022-08-03T09:46:06.049Z,6002.9
2022-08-03T09:48:04.912Z,6002.9
2022-08-03T09:50:06.323Z,6002.9
2022-08-03T09:52:33.328Z,6002.9
2022-08-03T09:54:12.716Z,6002.9
2022-08-03T09:56:33.126Z,6002.9
2022-08-03T09:58:04.798Z,6002.9
2022-08-03T10:00:07.794Z,6002.9
2022-08-03T10:02:04.982Z,6002.9
2022-08-03T10:04:09.741Z,6002.9
2022-08-03T10:06:05.805Z,6002.9
2022-08-03T10:08:05.001Z,6002.9
2022-08-03T10:10:28.601Z,6002.9
2022-08-03T10:12:04.930Z,6002.9
2022-08-03T10:14:06.642Z,6002.9
2022-08-03T10:16:20.548Z,6002.9
2022-08-03T10:18:08.230Z,6002.9
2022-08-03T10:20:04.947Z,6002.9
2022-08-03T10:22:04.886Z,6002.9
2022-08-03T10:24:09.600Z,6002.9
2022-08-03T10:26:09.286Z,6002.9
2022-08-03T10:28:08.278Z,6002.9
2022-08-03T10:30:04.698Z,6002.9
2022-08-03T10:32:06.235Z,6002.9
2022-08-03T10:34:07.881Z,6002.9
2022-08-03T10:36:06.424Z,6002.9
2022-08-03T10:38:08.275Z,6002.9
2022-08-03T10:40:08.324Z,6002.9
2022-08-03T10:42:04.942Z,6002.9
2022-08-03T10:44:06.484Z,6002.9
2022-08-03T10:46:04.812Z,6002.9
2022-08-03T10:48:08.247Z,6002.9
2022-08-03T10:50:07.829Z,6310.7
2022-08-03T10:52:05.267Z,6002.9
2022-08-03T10:54:08.225Z,6002.9
2022-08-03T10:56:05.526Z,6002.9
2022-08-03T10:58:07.978Z,6002.9
2022-08-03T11:00:06.430Z,6002.9
2022-08-03T11:02:04.998Z,6002.9
2022-08-03T11:04:09.640Z,6002.9
2022-08-03T11:06:06.247Z,5710.1
2022-08-03T11:08:11.429Z,6002.9
2022-08-03T11:10:10.677Z,6002.9
2022-08-03T11:12:04.699Z,6002.9
2022-08-03T11:14:16.708Z,6002.9
2022-08-03T11:16:17.245Z,6002.9
2022-08-03T11:18:11.061Z,6002.9
2022-08-03T11:20:07.939Z,6310.7
2022-08-03T11:22:05.260Z,6002.9
2022-08-03T11:26:11.162Z,6002.9
2022-08-03T11:28:04.706Z,6002.9
2022-08-03T11:30:05.512Z,6002.9
2022-08-03T11:32:08.200Z,6002.9
2022-08-03T11:34:04.903Z,6002.9
2022-08-03T11:36:08.186Z,6002.9
2022-08-03T11:38:06.661Z,6002.9
2022-08-03T11:40:06.189Z,6002.9
2022-08-03T11:42:05.268Z,6002.9
2022-08-03T11:44:09.737Z,6002.9
2022-08-03T11:46:04.927Z,6002.9
2022-08-03T11:48:08.229Z,6002.9
2022-08-03T11:50:06.625Z,6002.9
2022-08-03T11:54:08.285Z,6002.9
2022-08-03T11:56:04.793Z,6002.9
2022-08-03T11:58:57.691Z,6002.9
2022-08-03T12:00:06.261Z,6002.9
2022-08-03T12:02:08.433Z,6002.9
2022-08-03T12:04:16.856Z,6002.9
2022-08-03T12:06:05.346Z,6002.9
2022-08-03T12:08:10.017Z,6002.9
2022-08-03T12:10:11.355Z,6002.9
2022-08-03T12:12:04.709Z,6002.9
2022-08-03T12:14:28.954Z,6002.9
2022-08-03T12:16:06.413Z,6002.9
2022-08-03T12:18:08.332Z,6002.9
2022-08-03T12:20:07.859Z,6002.9
2022-08-03T12:22:04.733Z,6002.9
2022-08-03T12:24:06.031Z,6002.9
2022-08-03T12:26:05.379Z,6002.9
2022-08-03T12:28:04.975Z,6002.9
2022-08-03T12:30:05.102Z,6002.9
2022-08-03T12:32:08.092Z,6002.9
2022-08-03T12:34:04.999Z,6002.9
2022-08-03T12:36:04.814Z,6002.9
2022-08-03T12:38:12.888Z,6002.9
2022-08-03T12:40:09.301Z,6002.9
2022-08-03T12:42:10.997Z,6002.9
2022-08-03T12:44:04.709Z,6002.9
2022-08-03T12:46:07.328Z,6002.9
2022-08-03T12:48:04.725Z,6002.9
2022-08-03T12:50:09.790Z,6002.9
2022-08-03T12:52:07.663Z,6310.7
2022-08-03T12:54:05.070Z,6310.7
2022-08-03T12:56:06.174Z,6310.7
2022-08-03T12:58:09.626Z,6310.7
2022-08-03T13:00:04.863Z,6310.7
2022-08-03T13:02:09.138Z,6310.7
2022-08-03T13:04:04.803Z,6310.7
2022-08-03T13:06:04.750Z,6310.7
2022-08-03T13:08:04.760Z,6310.7
2022-08-03T13:10:07.969Z,6310.7
2022-08-03T13:12:04.704Z,6310.7
2022-08-03T13:14:06.139Z,6310.7
2022-08-03T13:16:06.161Z,6310.7
2022-08-03T13:18:05.281Z,6310.7
2022-08-03T13:20:08.309Z,6310.7
2022-08-03T13:22:07.906Z,6310.7
2022-08-03T13:24:08.249Z,6310.7
2022-08-03T13:26:08.305Z,6310.7
2022-08-03T13:28:12.545Z,6310.7
2022-08-03T13:30:06.711Z,6310.7
2022-08-03T13:32:05.360Z,6310.7
2022-08-03T13:34:06.260Z,6310.7
2022-08-03T13:36:06.269Z,6310.7
2022-08-03T13:38:04.890Z,6310.7
2022-08-03T13:40:05.839Z,6310.7
2022-08-03T13:42:04.861Z,6310.7
2022-08-03T13:44:26.384Z,6310.7
2022-08-03T13:48:06.107Z,6310.7
2022-08-03T13:50:05.200Z,6310.7
2022-08-03T13:52:08.346Z,6310.7
2022-08-03T13:54:04.712Z,6310.7
2022-08-03T13:56:09.391Z,6310.7
2022-08-03T13:58:07.406Z,6310.7
2022-08-03T14:02:09.697Z,6310.7
2022-08-03T14:04:06.254Z,6310.7
2022-08-03T14:06:05.419Z,6310.7
2022-08-03T14:08:05.276Z,6310.7
2022-08-03T14:10:05.057Z,6002.9
2022-08-03T14:12:08.536Z,6002.9
2022-08-03T14:14:08.264Z,6002.9
2022-08-03T14:16:06.235Z,6002.9
2022-08-03T14:18:12.949Z,6002.9
2022-08-03T14:20:37.635Z,6002.9
2022-08-03T14:22:06.883Z,6002.9
2022-08-03T14:24:08.294Z,5710.1
2022-08-03T14:26:04.886Z,5710.1
2022-08-03T14:28:04.767Z,5710.1
2022-08-03T14:30:09.677Z,5710.1
2022-08-03T14:34:04.895Z,5710.1
2022-08-03T14:36:04.850Z,5710.1
2022-08-03T14:38:04.920Z,5710.1
2022-08-03T14:40:04.849Z,5710.1
2022-08-03T14:42:09.631Z,5710.1
2022-08-03T14:44:04.696Z,5431.7
2022-08-03T14:46:04.959Z,5431.7
2022-08-03T14:49:02.442Z,5431.7
2022-08-03T14:50:35.218Z,5431.7
2022-08-03T14:52:04.688Z,5431.7
2022-08-03T14:54:07.961Z,5431.7
2022-08-03T14:56:10.796Z,5431.7
2022-08-03T14:58:07.204Z,5431.7
2022-08-03T15:00:06.562Z,5431.7
2022-08-03T15:02:08.825Z,5431.7
2022-08-03T15:04:07.901Z,5431.7
2022-08-03T15:06:09.512Z,5166.8
2022-08-03T15:08:08.919Z,5166.8
2022-08-03T15:10:09.994Z,5166.8
2022-08-03T15:12:04.974Z,5166.8
2022-08-03T15:14:08.792Z,5166.8
2022-08-03T15:16:04.748Z,5166.8
2022-08-03T15:18:04.947Z,5166.8
2022-08-03T15:20:17.108Z,5166.8
2022-08-03T15:22:08.182Z,5166.8
2022-08-03T15:24:04.953Z,4914.8
2022-08-03T15:26:32.473Z,4914.8
2022-08-03T15:28:04.864Z,4914.8
2022-08-03T15:30:10.426Z,4914.8
2022-08-03T15:32:08.806Z,4914.8
2022-08-03T15:34:04.904Z,4914.8
2022-08-03T15:36:11.504Z,4914.8
2022-08-03T15:38:09.556Z,4914.8
2022-08-03T15:40:04.757Z,4914.8
2022-08-03T15:42:06.282Z,4675.1
2022-08-03T15:44:09.339Z,4675.1
2022-08-03T15:46:29.009Z,4675.1
2022-08-03T15:48:04.821Z,4675.1
2022-08-03T15:50:09.563Z,4675.1
2022-08-03T15:54:06.703Z,4675.1
2022-08-03T15:56:09.774Z,4447.1
2022-08-03T15:58:59.493Z,4447.1
2022-08-03T16:00:06.935Z,4447.1
2022-08-03T16:02:04.834Z,4447.1
2022-08-03T16:04:13.029Z,4447.1
2022-08-03T16:06:04.857Z,4447.1
2022-08-03T16:10:09.457Z,4230.2
2022-08-03T16:12:04.858Z,4230.2
2022-08-03T16:14:13.948Z,4230.2
2022-08-03T16:18:04.728Z,4230.2
2022-08-03T16:20:29.095Z,4023.9
2022-08-03T16:22:04.744Z,4023.9
2022-08-03T16:24:05.746Z,4023.9
2022-08-03T16:26:09.078Z,4023.9
2022-08-03T16:28:12.982Z,4023.9
2022-08-03T16:30:10.078Z,3827.6
2022-08-03T16:34:05.038Z,3827.6
2022-08-03T16:36:04.749Z,3827.6
2022-08-03T16:38:09.405Z,3827.6
2022-08-03T16:40:04.812Z,3641
2022-08-03T16:42:04.837Z,3641
2022-08-03T16:44:09.540Z,3641
2022-08-03T16:46:04.972Z,3641
2022-08-03T16:48:08.292Z,3463.4
2022-08-03T16:50:09.018Z,3463.4
2022-08-03T16:52:06.315Z,3463.4
2022-08-03T16:54:08.123Z,3463.4
2022-08-03T16:56:10.052Z,3294.5
2022-08-03T16:58:05.476Z,3294.5
2022-08-03T17:02:09.666Z,3294.5
2022-08-03T17:04:06.349Z,3133.8
2022-08-03T17:06:04.998Z,3133.8
2022-08-03T17:08:10.531Z,3133.8
2022-08-03T17:10:05.119Z,2981
2022-08-03T17:12:04.914Z,2981
2022-08-03T17:14:09.590Z,2981
2022-08-03T17:16:04.993Z,2835.6
2022-08-03T17:18:05.011Z,2835.6
2022-08-03T17:20:09.721Z,2835.6
2022-08-03T17:22:04.991Z,2697.3
2022-08-03T17:24:11.986Z,2697.3
2022-08-03T17:26:17.407Z,2565.7
2022-08-03T17:28:42.763Z,2565.7
2022-08-03T17:30:07.654Z,2440.6
2022-08-03T17:32:09.363Z,2440.6
2022-08-03T17:34:04.762Z,2321.6
2022-08-03T17:36:05.228Z,2321.6
2022-08-03T17:38:07.909Z,2208.3
2022-08-03T17:40:05.349Z,2100.6
2022-08-03T17:42:04.744Z,1998.2
2022-08-03T17:44:14.760Z,1998.2
2022-08-03T17:46:13.081Z,1900.7
2022-08-03T17:50:09.739Z,1719.9
2022-08-03T17:52:04.867Z,1636
2022-08-03T17:54:06.221Z,1556.2
2022-08-03T17:56:07.823Z,1480.3
2022-08-03T17:58:08.304Z,1408.1
2022-08-03T18:00:11.572Z,1274.1
2022-08-03T18:02:10.481Z,1212
2022-08-03T18:04:11.923Z,1152.9
2022-08-03T18:06:08.814Z,1096.6
2022-08-03T18:08:08.066Z,992.3
2022-08-03T18:10:10.900Z,943.9
2022-08-03T18:12:07.907Z,897.8
2022-08-03T18:14:10.107Z,854.1
2022-08-03T18:16:07.892Z,772.8
2022-08-03T18:20:14.613Z,699.2
2022-08-03T18:22:07.878Z,665.1
2022-08-03T18:24:06.481Z,632.7
2022-08-03T18:26:17.087Z,572.5
2022-08-03T18:28:07.903Z,544.6
2022-08-03T18:30:11.978Z,518
2022-08-03T18:32:13.091Z,468.7
2022-08-03T18:34:16.149Z,445.9
2022-08-03T18:36:09.408Z,383.8
2022-08-03T18:38:10.333Z,365
2022-08-03T18:40:04.935Z,314.2
2022-08-03T18:42:06.241Z,284.3
2022-08-03T18:46:04.757Z,221.4
2022-08-03T18:48:04.743Z,181.3
2022-08-03T18:50:06.368Z,156
2022-08-03T18:52:12.124Z,127.7
2022-08-03T18:54:46.272Z,104.6
2022-08-03T18:56:05.016Z,90
2022-08-03T18:58:04.999Z,70.1
2022-08-03T19:00:10.392Z,54.6
2022-08-03T19:02:09.439Z,40.4
2022-08-03T19:04:04.913Z,30
2022-08-03T19:06:14.489Z,21.1
2022-08-03T19:08:04.853Z,14.9
2022-08-03T19:10:09.292Z,10.5
2022-08-03T19:12:10.944Z,7.4
2022-08-03T19:14:04.862Z,5.5
2022-08-03T19:16:04.975Z,3.9
2022-08-03T19:18:07.428Z,2.7
2022-08-03T19:20:05.319Z,1.9
2022-08-03T19:22:05.027Z,1.3
2022-08-03T19:24:10.263Z,1
2022-08-03T19:26:18.364Z,0.9
2022-08-03T19:28:05.954Z,0.5
2022-08-03T19:30:14.319Z,0.4
2022-08-03T19:32:04.988Z,0.3
2022-08-03T19:34:13.040Z,0.2
2022-08-03T19:36:08.719Z,0.2
2022-08-03T19:38:12.882Z,0.1
2022-08-03T19:40:05.039Z,0.1
2022-08-03T19:42:18.517Z,0
2022-08-03T19:44:06.334Z,0
2022-08-03T19:46:07.992Z,0
2022-08-03T19:48:08.085Z,0
2022-08-03T19:50:10.551Z,0
2022-08-03T19:52:09.759Z,0
2022-08-03T19:54:05.594Z,0
2022-08-03T19:56:04.829Z,1
2022-08-03T19:58:08.221Z,1
2022-08-03T20:00:06.634Z,1
2022-08-03T20:02:10.288Z,1
2022-08-03T20:04:05.075Z,1
2022-08-03T20:06:08.350Z,1
2022-08-03T20:08:04.817Z,1
2022-08-03T20:10:06.485Z,1
2022-08-03T20:12:08.339Z,1
2022-08-03T20:14:04.852Z,1
2022-08-03T20:16:08.420Z,1
2022-08-03T20:18:09.849Z,1
2022-08-03T20:20:07.947Z,1
2022-08-03T20:22:06.806Z,1
2022-08-03T20:24:23.634Z,1
2022-08-03T20:26:04.920Z,1
2022-08-03T20:28:13.702Z,1
2022-08-03T20:30:09.775Z,1
2022-08-03T20:32:08.325Z,1
2022-08-03T20:34:04.768Z,1
2022-08-03T20:36:08.337Z,1
2022-08-03T20:38:13.092Z,1
2022-08-03T20:40:06.268Z,1
2022-08-03T20:42:11.072Z,1
2022-08-03T20:44:09.829Z,1
2022-08-03T20:46:29.908Z,1
2022-08-03T20:48:12.706Z,1
2022-08-03T20:50:07.689Z,1
2022-08-03T20:52:08.267Z,1
2022-08-03T20:54:09.995Z,1
2022-08-03T20:56:09.488Z,1
2022-08-03T20:58:09.362Z,1
2022-08-03T21:00:07.006Z,1
2022-08-03T21:02:08.288Z,1
2022-08-03T21:04:04.771Z,1
2022-08-03T21:06:04.316Z,1
2022-08-03T21:08:11.512Z,1
2022-08-03T21:10:10.105Z,1
2022-08-03T21:12:04.794Z,1
2022-08-03T21:14:04.909Z,1
2022-08-03T21:16:13.261Z,1
2022-08-03T21:18:05.186Z,1
2022-08-03T21:20:05.146Z,1
2022-08-03T21:22:09.733Z,1
2022-08-03T21:24:06.320Z,1
2022-08-03T21:26:04.885Z,1
2022-08-03T21:28:08.328Z,1
2022-08-03T21:30:04.787Z,1
2022-08-03T21:32:04.890Z,1
2022-08-03T21:34:04.933Z,1
2022-08-03T21:36:06.390Z,1
2022-08-03T21:38:06.408Z,1
2022-08-03T21:40:10.273Z,1
2022-08-03T21:42:14.287Z,1
2022-08-03T21:44:04.907Z,1
2022-08-03T21:46:04.771Z,1
2022-08-03T21:48:11.437Z,1
2022-08-03T21:50:09.364Z,1
2022-08-03T21:52:06.306Z,1
2022-08-03T21:54:05.222Z,1
2022-08-03T21:56:05.078Z,1
2022-08-03T21:58:04.803Z,1
2022-08-03T22:00:05.805Z,1
2022-08-03T22:02:07.005Z,1
2022-08-03T22:04:04.937Z,1
2022-08-03T22:06:04.972Z,1
2022-08-03T22:08:07.362Z,1
2022-08-03T22:10:08.355Z,1
2022-08-03T22:12:04.781Z,1
2022-08-03T22:14:04.874Z,1
2022-08-03T22:16:04.938Z,1
2022-08-03T22:18:04.784Z,1
2022-08-03T22:20:10.254Z,1
2022-08-03T22:22:06.735Z,1
2022-08-03T22:24:06.345Z,1
2022-08-03T22:26:12.924Z,1
2022-08-03T22:28:04.867Z,1
2022-08-03T22:30:12.150Z,1
2022-08-03T22:32:05.088Z,1
2022-08-03T22:34:06.596Z,1
2022-08-03T22:36:04.864Z,1
2022-08-03T22:38:04.820Z,1
2022-08-03T22:40:06.508Z,1
2022-08-03T22:42:09.804Z,1
2022-08-03T22:44:06.354Z,1
2022-08-03T22:46:08.564Z,1
2022-08-03T22:48:04.791Z,1
2022-08-03T22:50:31.088Z,1
2022-08-03T22:52:06.431Z,1
2022-08-03T22:54:04.943Z,1
2022-08-03T22:56:05.021Z,1
2022-08-03T22:58:05.063Z,1
2022-08-03T23:00:06.963Z,1
2022-08-03T23:06:08.352Z,1
2022-08-03T23:08:09.482Z,1
2022-08-03T23:10:04.889Z,1
2022-08-03T23:12:04.906Z,1
2022-08-03T23:14:13.083Z,1
2022-08-03T23:16:04.876Z,1
2022-08-03T23:18:05.030Z,1
2022-08-03T23:20:13.615Z,1
2022-08-03T23:22:17.123Z,1
2022-08-03T23:24:10.728Z,1
2022-08-03T23:26:06.290Z,1
2022-08-03T23:28:10.009Z,1
2022-08-03T23:30:07.033Z,1
2022-08-03T23:32:09.958Z,1
2022-08-03T23:34:08.365Z,1
2022-08-03T23:36:30.000Z,1
2022-08-03T23:38:19.257Z,1
2022-08-03T23:40:14.919Z,1
2022-08-03T23:42:04.783Z,1
2022-08-03T23:44:11.535Z,1
2022-08-03T23:46:04.935Z,1
2022-08-03T23:48:04.314Z,1
2022-08-03T23:50:04.990Z,1
2022-08-03T23:52:09.577Z,1
2022-08-03T23:54:12.763Z,1
2022-08-03T23:58:04.963Z,1
